sensor_id;sensor_type;location;lat;lon;timestamp;P1;durP1;ratioP1;P2;durP2;ratioP2
48207;SDS011;33997;53.278;9.708;2023-08-24T00:00:33;8.07;;;4.25;;
48207;SDS011;33997;53.278;9.708;2023-08-24T00:02:59;9.25;;;4.28;;
48207;SDS011;33997;53.278;9.708;2023-08-24T00:05:24;12.15;;;4.85;;
48207;SDS011;33997;53.278;9.708;2023-08-24T00:07:50;7.22;;;3.63;;
48207;SDS011;33997;53.278;9.708;2023-08-24T00:10:16;10.38;;;4.28;;
48207;SDS011;33997;53.278;9.708;2023-08-24T00:12:43;13.57;;;4.45;;
48207;SDS011;33997;53.278;9.708;2023-08-24T00:15:08;13.60;;;4.50;;
48207;SDS011;33997;53.278;9.708;2023-08-24T00:17:35;10.50;;;4.90;;
48207;SDS011;33997;53.278;9.708;2023-08-24T00:20:02;14.23;;;5.50;;
48207;SDS011;33997;53.278;9.708;2023-08-24T00:22:29;9.55;;;5.63;;
48207;SDS011;33997;53.278;9.708;2023-08-24T00:24:55;9.43;;;5.32;;
48207;SDS011;33997;53.278;9.708;2023-08-24T00:27:20;12.35;;;5.65;;
48207;SDS011;33997;53.278;9.708;2023-08-24T00:29:46;8.18;;;4.65;;
48207;SDS011;33997;53.278;9.708;2023-08-24T00:32:11;11.35;;;5.03;;
48207;SDS011;33997;53.278;9.708;2023-08-24T00:34:37;11.77;;;5.30;;
48207;SDS011;33997;53.278;9.708;2023-08-24T00:37:02;8.77;;;5.10;;
48207;SDS011;33997;53.278;9.708;2023-08-24T00:39:28;9.45;;;5.13;;
48207;SDS011;33997;53.278;9.708;2023-08-24T00:41:54;8.68;;;4.70;;
48207;SDS011;33997;53.278;9.708;2023-08-24T00:44:19;11.73;;;4.82;;
48207;SDS011;33997;53.278;9.708;2023-08-24T00:46:45;8.50;;;5.03;;
48207;SDS011;33997;53.278;9.708;2023-08-24T00:49:10;9.73;;;4.85;;
48207;SDS011;33997;53.278;9.708;2023-08-24T00:51:36;9.77;;;5.13;;
48207;SDS011;33997;53.278;9.708;2023-08-24T00:54:03;11.60;;;6.72;;
48207;SDS011;33997;53.278;9.708;2023-08-24T00:56:29;12.98;;;6.85;;
48207;SDS011;33997;53.278;9.708;2023-08-24T00:58:55;12.85;;;7.07;;
48207;SDS011;33997;53.278;9.708;2023-08-24T01:01:22;8.63;;;6.50;;
48207;SDS011;33997;53.278;9.708;2023-08-24T01:03:49;10.45;;;6.63;;
48207;SDS011;33997;53.278;9.708;2023-08-24T01:06:15;13.60;;;6.93;;
48207;SDS011;33997;53.278;9.708;2023-08-24T01:08:40;13.50;;;6.72;;
48207;SDS011;33997;53.278;9.708;2023-08-24T01:11:16;12.38;;;7.80;;
48207;SDS011;33997;53.278;9.708;2023-08-24T01:16:32;12.07;;;6.10;;
48207;SDS011;33997;53.278;9.708;2023-08-24T01:19:05;14.32;;;7.53;;
48207;SDS011;33997;53.278;9.708;2023-08-24T01:21:35;18.30;;;7.55;;
48207;SDS011;33997;53.278;9.708;2023-08-24T01:26:46;11.65;;;8.48;;
48207;SDS011;33997;53.278;9.708;2023-08-24T01:29:13;13.10;;;8.57;;
48207;SDS011;33997;53.278;9.708;2023-08-24T01:31:40;12.43;;;8.95;;
48207;SDS011;33997;53.278;9.708;2023-08-24T01:34:06;16.05;;;9.10;;
48207;SDS011;33997;53.278;9.708;2023-08-24T01:36:31;13.90;;;8.75;;
48207;SDS011;33997;53.278;9.708;2023-08-24T01:38:58;14.63;;;9.00;;
48207;SDS011;33997;53.278;9.708;2023-08-24T01:41:35;15.10;;;8.95;;
48207;SDS011;33997;53.278;9.708;2023-08-24T01:44:07;15.32;;;9.82;;
48207;SDS011;33997;53.278;9.708;2023-08-24T01:46:34;13.88;;;9.18;;
48207;SDS011;33997;53.278;9.708;2023-08-24T01:49:02;14.93;;;9.32;;
48207;SDS011;33997;53.278;9.708;2023-08-24T01:51:29;18.65;;;9.73;;
48207;SDS011;33997;53.278;9.708;2023-08-24T01:53:55;14.77;;;9.77;;
48207;SDS011;33997;53.278;9.708;2023-08-24T01:56:22;16.02;;;11.30;;
48207;SDS011;33997;53.278;9.708;2023-08-24T01:58:47;16.33;;;11.60;;
48207;SDS011;33997;53.278;9.708;2023-08-24T02:01:13;22.65;;;12.52;;
48207;SDS011;33997;53.278;9.708;2023-08-24T02:03:38;19.98;;;12.18;;
48207;SDS011;33997;53.278;9.708;2023-08-24T02:06:04;17.30;;;13.68;;
48207;SDS011;33997;53.278;9.708;2023-08-24T02:08:31;18.63;;;13.00;;
48207;SDS011;33997;53.278;9.708;2023-08-24T02:10:57;20.65;;;13.35;;
48207;SDS011;33997;53.278;9.708;2023-08-24T02:13:23;18.98;;;12.88;;
48207;SDS011;33997;53.278;9.708;2023-08-24T02:15:48;18.52;;;13.02;;
48207;SDS011;33997;53.278;9.708;2023-08-24T02:18:13;21.95;;;14.02;;
48207;SDS011;33997;53.278;9.708;2023-08-24T02:20:39;18.67;;;13.10;;
48207;SDS011;33997;53.278;9.708;2023-08-24T02:23:05;23.58;;;13.65;;
48207;SDS011;33997;53.278;9.708;2023-08-24T02:25:31;22.90;;;14.68;;
48207;SDS011;33997;53.278;9.708;2023-08-24T02:27:57;21.80;;;14.38;;
48207;SDS011;33997;53.278;9.708;2023-08-24T02:30:22;20.95;;;13.48;;
48207;SDS011;33997;53.278;9.708;2023-08-24T02:32:49;18.90;;;13.57;;
48207;SDS011;33997;53.278;9.708;2023-08-24T02:35:15;19.33;;;13.93;;
48207;SDS011;33997;53.278;9.708;2023-08-24T02:37:41;19.38;;;13.48;;
48207;SDS011;33997;53.278;9.708;2023-08-24T02:40:07;24.60;;;13.60;;
48207;SDS011;33997;53.278;9.708;2023-08-24T02:42:34;19.95;;;13.50;;
48207;SDS011;33997;53.278;9.708;2023-08-24T02:44:59;21.38;;;14.82;;
48207;SDS011;33997;53.278;9.708;2023-08-24T02:47:25;19.85;;;14.43;;
48207;SDS011;33997;53.278;9.708;2023-08-24T02:49:50;20.90;;;14.88;;
48207;SDS011;33997;53.278;9.708;2023-08-24T02:52:16;24.00;;;15.88;;
48207;SDS011;33997;53.278;9.708;2023-08-24T02:54:42;25.65;;;15.27;;
48207;SDS011;33997;53.278;9.708;2023-08-24T02:57:08;26.40;;;14.32;;
48207;SDS011;33997;53.278;9.708;2023-08-24T02:59:33;21.77;;;14.55;;
48207;SDS011;33997;53.278;9.708;2023-08-24T03:01:59;25.83;;;15.45;;
48207;SDS011;33997;53.278;9.708;2023-08-24T03:04:24;28.00;;;15.50;;
48207;SDS011;33997;53.278;9.708;2023-08-24T03:06:50;29.90;;;15.48;;
48207;SDS011;33997;53.278;9.708;2023-08-24T03:09:15;22.15;;;15.20;;
48207;SDS011;33997;53.278;9.708;2023-08-24T03:11:41;24.13;;;14.65;;
48207;SDS011;33997;53.278;9.708;2023-08-24T03:14:06;26.67;;;16.20;;
48207;SDS011;33997;53.278;9.708;2023-08-24T03:16:32;24.52;;;15.00;;
48207;SDS011;33997;53.278;9.708;2023-08-24T03:18:57;21.30;;;15.00;;
48207;SDS011;33997;53.278;9.708;2023-08-24T03:21:23;21.58;;;14.75;;
48207;SDS011;33997;53.278;9.708;2023-08-24T03:23:48;24.90;;;16.35;;
48207;SDS011;33997;53.278;9.708;2023-08-24T03:26:14;22.88;;;15.32;;
48207;SDS011;33997;53.278;9.708;2023-08-24T03:28:41;22.67;;;15.38;;
48207;SDS011;33997;53.278;9.708;2023-08-24T03:31:07;20.70;;;13.93;;
48207;SDS011;33997;53.278;9.708;2023-08-24T03:33:33;22.67;;;14.73;;
48207;SDS011;33997;53.278;9.708;2023-08-24T03:35:59;24.30;;;14.32;;
48207;SDS011;33997;53.278;9.708;2023-08-24T03:38:25;23.80;;;13.95;;
48207;SDS011;33997;53.278;9.708;2023-08-24T03:40:51;21.95;;;14.00;;
48207;SDS011;33997;53.278;9.708;2023-08-24T03:43:17;21.95;;;13.65;;
48207;SDS011;33997;53.278;9.708;2023-08-24T03:45:42;20.25;;;14.32;;
48207;SDS011;33997;53.278;9.708;2023-08-24T03:48:08;18.90;;;12.18;;
48207;SDS011;33997;53.278;9.708;2023-08-24T03:50:34;19.30;;;12.63;;
48207;SDS011;33997;53.278;9.708;2023-08-24T03:52:59;23.25;;;13.63;;
48207;SDS011;33997;53.278;9.708;2023-08-24T03:55:25;24.50;;;14.63;;
48207;SDS011;33997;53.278;9.708;2023-08-24T03:57:50;29.08;;;14.57;;
48207;SDS011;33997;53.278;9.708;2023-08-24T04:00:16;22.80;;;14.60;;
48207;SDS011;33997;53.278;9.708;2023-08-24T04:02:42;21.75;;;15.07;;
48207;SDS011;33997;53.278;9.708;2023-08-24T04:05:07;21.60;;;14.27;;
48207;SDS011;33997;53.278;9.708;2023-08-24T04:07:33;24.90;;;15.45;;
48207;SDS011;33997;53.278;9.708;2023-08-24T04:10:01;25.50;;;15.18;;
48207;SDS011;33997;53.278;9.708;2023-08-24T04:12:29;22.35;;;14.60;;
48207;SDS011;33997;53.278;9.708;2023-08-24T04:14:55;26.88;;;14.80;;
48207;SDS011;33997;53.278;9.708;2023-08-24T04:17:22;22.50;;;13.93;;
48207;SDS011;33997;53.278;9.708;2023-08-24T04:19:48;21.88;;;14.30;;
48207;SDS011;33997;53.278;9.708;2023-08-24T04:22:13;28.15;;;15.02;;
48207;SDS011;33997;53.278;9.708;2023-08-24T04:24:39;25.80;;;15.25;;
48207;SDS011;33997;53.278;9.708;2023-08-24T04:27:04;28.65;;;15.45;;
48207;SDS011;33997;53.278;9.708;2023-08-24T04:29:30;31.98;;;17.08;;
48207;SDS011;33997;53.278;9.708;2023-08-24T04:31:55;47.42;;;22.05;;
48207;SDS011;33997;53.278;9.708;2023-08-24T04:34:21;37.83;;;19.55;;
48207;SDS011;33997;53.278;9.708;2023-08-24T04:36:46;41.10;;;21.65;;
48207;SDS011;33997;53.278;9.708;2023-08-24T04:39:12;48.22;;;22.33;;
48207;SDS011;33997;53.278;9.708;2023-08-24T04:41:37;46.63;;;23.33;;
48207;SDS011;33997;53.278;9.708;2023-08-24T04:44:03;42.55;;;21.45;;
48207;SDS011;33997;53.278;9.708;2023-08-24T04:46:28;47.30;;;21.08;;
48207;SDS011;33997;53.278;9.708;2023-08-24T04:48:54;31.92;;;17.42;;
48207;SDS011;33997;53.278;9.708;2023-08-24T04:51:19;36.55;;;18.83;;
48207;SDS011;33997;53.278;9.708;2023-08-24T04:53:44;30.13;;;16.83;;
48207;SDS011;33997;53.278;9.708;2023-08-24T04:56:10;30.48;;;17.00;;
48207;SDS011;33997;53.278;9.708;2023-08-24T04:58:36;30.08;;;15.23;;
48207;SDS011;33997;53.278;9.708;2023-08-24T05:01:01;26.60;;;15.02;;
48207;SDS011;33997;53.278;9.708;2023-08-24T05:03:27;22.08;;;14.07;;
48207;SDS011;33997;53.278;9.708;2023-08-24T05:05:52;22.30;;;14.32;;
48207;SDS011;33997;53.278;9.708;2023-08-24T05:08:17;22.42;;;13.07;;
48207;SDS011;33997;53.278;9.708;2023-08-24T05:10:43;21.70;;;13.57;;
48207;SDS011;33997;53.278;9.708;2023-08-24T05:13:09;20.90;;;13.00;;
48207;SDS011;33997;53.278;9.708;2023-08-24T05:15:34;17.38;;;12.10;;
48207;SDS011;33997;53.278;9.708;2023-08-24T05:18:00;17.42;;;11.63;;
48207;SDS011;33997;53.278;9.708;2023-08-24T05:20:26;19.10;;;11.55;;
48207;SDS011;33997;53.278;9.708;2023-08-24T05:22:52;18.92;;;11.32;;
48207;SDS011;33997;53.278;9.708;2023-08-24T05:25:20;16.08;;;10.93;;
48207;SDS011;33997;53.278;9.708;2023-08-24T05:27:46;14.57;;;10.80;;
48207;SDS011;33997;53.278;9.708;2023-08-24T05:30:11;16.70;;;10.60;;
48207;SDS011;33997;53.278;9.708;2023-08-24T05:32:37;17.25;;;10.75;;
48207;SDS011;33997;53.278;9.708;2023-08-24T05:35:04;17.52;;;11.65;;
48207;SDS011;33997;53.278;9.708;2023-08-24T05:37:34;18.42;;;10.40;;
48207;SDS011;33997;53.278;9.708;2023-08-24T05:40:00;15.55;;;9.70;;
48207;SDS011;33997;53.278;9.708;2023-08-24T05:42:26;17.35;;;10.30;;
48207;SDS011;33997;53.278;9.708;2023-08-24T05:44:52;18.45;;;10.50;;
48207;SDS011;33997;53.278;9.708;2023-08-24T05:47:18;19.30;;;11.45;;
48207;SDS011;33997;53.278;9.708;2023-08-24T05:49:43;17.23;;;11.15;;
48207;SDS011;33997;53.278;9.708;2023-08-24T05:52:09;21.48;;;12.05;;
48207;SDS011;33997;53.278;9.708;2023-08-24T05:54:36;21.63;;;12.50;;
48207;SDS011;33997;53.278;9.708;2023-08-24T05:57:01;19.48;;;13.10;;
48207;SDS011;33997;53.278;9.708;2023-08-24T05:59:28;19.30;;;13.30;;
48207;SDS011;33997;53.278;9.708;2023-08-24T06:01:54;25.17;;;13.93;;
48207;SDS011;33997;53.278;9.708;2023-08-24T06:04:20;19.52;;;13.40;;
48207;SDS011;33997;53.278;9.708;2023-08-24T06:06:45;21.00;;;13.13;;
48207;SDS011;33997;53.278;9.708;2023-08-24T06:09:11;19.30;;;11.85;;
48207;SDS011;33997;53.278;9.708;2023-08-24T06:11:36;17.98;;;10.95;;
48207;SDS011;33997;53.278;9.708;2023-08-24T06:14:02;15.10;;;9.73;;
48207;SDS011;33997;53.278;9.708;2023-08-24T06:16:28;13.65;;;8.55;;
48207;SDS011;33997;53.278;9.708;2023-08-24T06:18:54;18.00;;;8.45;;
48207;SDS011;33997;53.278;9.708;2023-08-24T06:21:19;13.98;;;8.70;;
48207;SDS011;33997;53.278;9.708;2023-08-24T06:23:45;11.93;;;7.35;;
48207;SDS011;33997;53.278;9.708;2023-08-24T06:26:12;12.95;;;7.88;;
48207;SDS011;33997;53.278;9.708;2023-08-24T06:28:38;10.73;;;7.60;;
48207;SDS011;33997;53.278;9.708;2023-08-24T06:31:03;12.93;;;6.78;;
48207;SDS011;33997;53.278;9.708;2023-08-24T06:33:29;14.88;;;6.10;;
48207;SDS011;33997;53.278;9.708;2023-08-24T06:35:58;9.00;;;6.15;;
48207;SDS011;33997;53.278;9.708;2023-08-24T06:38:24;11.65;;;6.38;;
48207;SDS011;33997;53.278;9.708;2023-08-24T06:40:50;14.48;;;7.03;;
48207;SDS011;33997;53.278;9.708;2023-08-24T06:43:16;9.93;;;7.15;;
48207;SDS011;33997;53.278;9.708;2023-08-24T06:45:41;12.95;;;7.82;;
48207;SDS011;33997;53.278;9.708;2023-08-24T06:48:08;13.13;;;6.80;;
48207;SDS011;33997;53.278;9.708;2023-08-24T06:50:34;13.02;;;6.07;;
48207;SDS011;33997;53.278;9.708;2023-08-24T06:53:01;14.77;;;6.18;;
48207;SDS011;33997;53.278;9.708;2023-08-24T06:55:28;8.57;;;4.22;;
48207;SDS011;33997;53.278;9.708;2023-08-24T06:57:53;12.27;;;5.22;;
48207;SDS011;33997;53.278;9.708;2023-08-24T07:00:19;9.65;;;4.70;;
48207;SDS011;33997;53.278;9.708;2023-08-24T07:02:46;9.77;;;4.55;;
48207;SDS011;33997;53.278;9.708;2023-08-24T07:05:12;13.90;;;5.80;;
48207;SDS011;33997;53.278;9.708;2023-08-24T07:07:37;15.30;;;5.95;;
48207;SDS011;33997;53.278;9.708;2023-08-24T07:10:03;11.80;;;6.47;;
48207;SDS011;33997;53.278;9.708;2023-08-24T07:12:29;15.30;;;7.45;;
48207;SDS011;33997;53.278;9.708;2023-08-24T07:14:54;11.32;;;5.70;;
48207;SDS011;33997;53.278;9.708;2023-08-24T07:17:20;14.23;;;6.15;;
48207;SDS011;33997;53.278;9.708;2023-08-24T07:19:45;13.32;;;5.90;;
48207;SDS011;33997;53.278;9.708;2023-08-24T07:22:11;17.50;;;7.70;;
48207;SDS011;33997;53.278;9.708;2023-08-24T07:24:36;14.32;;;8.00;;
48207;SDS011;33997;53.278;9.708;2023-08-24T07:27:02;13.18;;;6.68;;
48207;SDS011;33997;53.278;9.708;2023-08-24T07:29:31;14.15;;;5.57;;
48207;SDS011;33997;53.278;9.708;2023-08-24T07:31:56;14.73;;;8.27;;
48207;SDS011;33997;53.278;9.708;2023-08-24T07:34:22;14.73;;;7.45;;
48207;SDS011;33997;53.278;9.708;2023-08-24T07:36:47;12.57;;;7.05;;
48207;SDS011;33997;53.278;9.708;2023-08-24T07:39:15;12.77;;;6.40;;
48207;SDS011;33997;53.278;9.708;2023-08-24T07:41:44;9.07;;;6.03;;
48207;SDS011;33997;53.278;9.708;2023-08-24T07:44:10;9.95;;;5.00;;
48207;SDS011;33997;53.278;9.708;2023-08-24T07:46:35;12.13;;;5.05;;
48207;SDS011;33997;53.278;9.708;2023-08-24T07:49:01;11.27;;;4.82;;
48207;SDS011;33997;53.278;9.708;2023-08-24T07:51:26;11.02;;;4.53;;
48207;SDS011;33997;53.278;9.708;2023-08-24T07:53:53;11.25;;;5.45;;
48207;SDS011;33997;53.278;9.708;2023-08-24T07:56:18;11.65;;;4.57;;
48207;SDS011;33997;53.278;9.708;2023-08-24T07:58:44;8.65;;;4.15;;
48207;SDS011;33997;53.278;9.708;2023-08-24T08:01:09;7.10;;;3.80;;
48207;SDS011;33997;53.278;9.708;2023-08-24T08:03:36;9.77;;;3.55;;
48207;SDS011;33997;53.278;9.708;2023-08-24T08:06:01;5.18;;;2.80;;
48207;SDS011;33997;53.278;9.708;2023-08-24T08:08:27;8.93;;;3.40;;
48207;SDS011;33997;53.278;9.708;2023-08-24T08:10:57;8.38;;;3.80;;
48207;SDS011;33997;53.278;9.708;2023-08-24T08:13:24;8.50;;;3.45;;
48207;SDS011;33997;53.278;9.708;2023-08-24T08:15:50;8.07;;;3.10;;
48207;SDS011;33997;53.278;9.708;2023-08-24T08:18:15;9.05;;;3.80;;
48207;SDS011;33997;53.278;9.708;2023-08-24T08:20:41;7.85;;;3.95;;
48207;SDS011;33997;53.278;9.708;2023-08-24T08:23:06;10.02;;;4.47;;
48207;SDS011;33997;53.278;9.708;2023-08-24T08:25:32;9.75;;;4.07;;
48207;SDS011;33997;53.278;9.708;2023-08-24T08:27:58;13.63;;;4.65;;
48207;SDS011;33997;53.278;9.708;2023-08-24T08:30:23;8.18;;;4.13;;
48207;SDS011;33997;53.278;9.708;2023-08-24T08:32:49;10.25;;;3.78;;
48207;SDS011;33997;53.278;9.708;2023-08-24T08:35:16;7.97;;;3.08;;
48207;SDS011;33997;53.278;9.708;2023-08-24T08:37:42;7.75;;;3.20;;
48207;SDS011;33997;53.278;9.708;2023-08-24T08:40:09;8.25;;;2.95;;
48207;SDS011;33997;53.278;9.708;2023-08-24T08:42:35;6.38;;;3.25;;
48207;SDS011;33997;53.278;9.708;2023-08-24T08:45:01;8.75;;;3.10;;
48207;SDS011;33997;53.278;9.708;2023-08-24T08:47:29;8.57;;;2.67;;
48207;SDS011;33997;53.278;9.708;2023-08-24T08:49:55;9.48;;;2.55;;
48207;SDS011;33997;53.278;9.708;2023-08-24T08:52:20;6.95;;;3.22;;
48207;SDS011;33997;53.278;9.708;2023-08-24T08:54:46;9.52;;;3.13;;
48207;SDS011;33997;53.278;9.708;2023-08-24T08:57:11;6.80;;;3.10;;
48207;SDS011;33997;53.278;9.708;2023-08-24T08:59:39;5.82;;;3.30;;
48207;SDS011;33997;53.278;9.708;2023-08-24T09:02:06;8.18;;;3.47;;
48207;SDS011;33997;53.278;9.708;2023-08-24T09:04:40;8.95;;;3.00;;
48207;SDS011;33997;53.278;9.708;2023-08-24T09:07:09;8.38;;;3.42;;
48207;SDS011;33997;53.278;9.708;2023-08-24T09:09:36;10.70;;;3.60;;
48207;SDS011;33997;53.278;9.708;2023-08-24T09:12:03;9.98;;;3.22;;
48207;SDS011;33997;53.278;9.708;2023-08-24T09:14:31;6.35;;;2.83;;
48207;SDS011;33997;53.278;9.708;2023-08-24T09:16:57;6.47;;;2.90;;
48207;SDS011;33997;53.278;9.708;2023-08-24T09:19:29;7.47;;;3.08;;
48207;SDS011;33997;53.278;9.708;2023-08-24T09:21:59;9.63;;;2.60;;
48207;SDS011;33997;53.278;9.708;2023-08-24T09:24:33;6.00;;;2.50;;
48207;SDS011;33997;53.278;9.708;2023-08-24T09:27:00;7.22;;;2.72;;
48207;SDS011;33997;53.278;9.708;2023-08-24T09:29:40;5.63;;;2.60;;
48207;SDS011;33997;53.278;9.708;2023-08-24T09:32:09;6.40;;;2.67;;
48207;SDS011;33997;53.278;9.708;2023-08-24T09:34:36;5.82;;;2.88;;
48207;SDS011;33997;53.278;9.708;2023-08-24T09:37:01;4.45;;;2.50;;
48207;SDS011;33997;53.278;9.708;2023-08-24T09:39:29;9.13;;;3.53;;
48207;SDS011;33997;53.278;9.708;2023-08-24T09:41:54;6.78;;;2.67;;
48207;SDS011;33997;53.278;9.708;2023-08-24T09:44:27;8.40;;;2.95;;
48207;SDS011;33997;53.278;9.708;2023-08-24T09:46:53;8.82;;;3.25;;
48207;SDS011;33997;53.278;9.708;2023-08-24T09:49:19;7.30;;;3.08;;
48207;SDS011;33997;53.278;9.708;2023-08-24T09:51:45;9.68;;;3.35;;
48207;SDS011;33997;53.278;9.708;2023-08-24T09:54:11;10.73;;;3.05;;
48207;SDS011;33997;53.278;9.708;2023-08-24T09:56:39;5.07;;;2.58;;
48207;SDS011;33997;53.278;9.708;2023-08-24T09:59:10;8.10;;;3.20;;
48207;SDS011;33997;53.278;9.708;2023-08-24T10:01:43;7.90;;;2.90;;
48207;SDS011;33997;53.278;9.708;2023-08-24T10:04:09;6.70;;;2.97;;
48207;SDS011;33997;53.278;9.708;2023-08-24T10:06:37;6.30;;;2.53;;
48207;SDS011;33997;53.278;9.708;2023-08-24T10:09:05;6.80;;;2.75;;
48207;SDS011;33997;53.278;9.708;2023-08-24T10:11:34;7.32;;;2.70;;
48207;SDS011;33997;53.278;9.708;2023-08-24T10:14:05;8.02;;;2.67;;
48207;SDS011;33997;53.278;9.708;2023-08-24T10:16:40;6.57;;;2.85;;
48207;SDS011;33997;53.278;9.708;2023-08-24T10:19:07;7.90;;;3.17;;
48207;SDS011;33997;53.278;9.708;2023-08-24T10:21:33;10.60;;;3.25;;
48207;SDS011;33997;53.278;9.708;2023-08-24T10:24:01;10.60;;;2.67;;
48207;SDS011;33997;53.278;9.708;2023-08-24T10:26:27;8.85;;;2.55;;
48207;SDS011;33997;53.278;9.708;2023-08-24T10:28:53;6.25;;;2.70;;
48207;SDS011;33997;53.278;9.708;2023-08-24T10:31:19;7.18;;;3.17;;
48207;SDS011;33997;53.278;9.708;2023-08-24T10:33:45;6.57;;;3.55;;
48207;SDS011;33997;53.278;9.708;2023-08-24T10:36:15;6.22;;;2.90;;
48207;SDS011;33997;53.278;9.708;2023-08-24T10:38:41;9.77;;;2.78;;
48207;SDS011;33997;53.278;9.708;2023-08-24T10:41:08;8.70;;;3.30;;
48207;SDS011;33997;53.278;9.708;2023-08-24T10:43:37;6.78;;;2.88;;
48207;SDS011;33997;53.278;9.708;2023-08-24T10:46:03;7.05;;;2.65;;
48207;SDS011;33997;53.278;9.708;2023-08-24T10:53:47;5.00;;;2.17;;
48207;SDS011;33997;53.278;9.708;2023-08-24T10:56:17;7.30;;;2.67;;
48207;SDS011;33997;53.278;9.708;2023-08-24T10:58:43;5.32;;;2.38;;
48207;SDS011;33997;53.278;9.708;2023-08-24T11:01:17;4.55;;;2.17;;
48207;SDS011;33997;53.278;9.708;2023-08-24T11:03:49;4.95;;;2.00;;
48207;SDS011;33997;53.278;9.708;2023-08-24T11:06:22;5.07;;;1.90;;
48207;SDS011;33997;53.278;9.708;2023-08-24T11:09:05;5.75;;;1.80;;
48207;SDS011;33997;53.278;9.708;2023-08-24T11:11:38;4.35;;;2.20;;
48207;SDS011;33997;53.278;9.708;2023-08-24T11:14:17;4.97;;;2.35;;
48207;SDS011;33997;53.278;9.708;2023-08-24T11:19:52;4.55;;;1.95;;
48207;SDS011;33997;53.278;9.708;2023-08-24T11:22:18;5.75;;;2.30;;
48207;SDS011;33997;53.278;9.708;2023-08-24T11:24:44;6.30;;;2.08;;
48207;SDS011;33997;53.278;9.708;2023-08-24T11:27:11;3.75;;;1.90;;
48207;SDS011;33997;53.278;9.708;2023-08-24T11:29:36;6.50;;;2.25;;
48207;SDS011;33997;53.278;9.708;2023-08-24T11:32:02;4.78;;;2.25;;
48207;SDS011;33997;53.278;9.708;2023-08-24T11:34:28;4.90;;;2.35;;
48207;SDS011;33997;53.278;9.708;2023-08-24T11:36:54;5.00;;;2.20;;
48207;SDS011;33997;53.278;9.708;2023-08-24T11:39:20;5.22;;;2.47;;
48207;SDS011;33997;53.278;9.708;2023-08-24T11:42:00;6.30;;;2.42;;
48207;SDS011;33997;53.278;9.708;2023-08-24T11:44:30;6.70;;;2.15;;
48207;SDS011;33997;53.278;9.708;2023-08-24T11:47:11;4.28;;;2.25;;
48207;SDS011;33997;53.278;9.708;2023-08-24T11:49:37;4.97;;;1.92;;
48207;SDS011;33997;53.278;9.708;2023-08-24T11:52:02;5.57;;;2.15;;
48207;SDS011;33997;53.278;9.708;2023-08-24T11:54:28;4.60;;;2.00;;
48207;SDS011;33997;53.278;9.708;2023-08-24T11:56:56;5.50;;;2.00;;
48207;SDS011;33997;53.278;9.708;2023-08-24T11:59:22;7.35;;;1.77;;
48207;SDS011;33997;53.278;9.708;2023-08-24T12:01:48;5.68;;;2.22;;
48207;SDS011;33997;53.278;9.708;2023-08-24T12:04:14;5.32;;;1.90;;
48207;SDS011;33997;53.278;9.708;2023-08-24T12:06:39;4.72;;;1.60;;
48207;SDS011;33997;53.278;9.708;2023-08-24T12:09:05;6.03;;;2.10;;
48207;SDS011;33997;53.278;9.708;2023-08-24T12:11:34;5.22;;;1.90;;
48207;SDS011;33997;53.278;9.708;2023-08-24T12:14:00;4.97;;;1.90;;
48207;SDS011;33997;53.278;9.708;2023-08-24T12:16:26;5.78;;;1.80;;
48207;SDS011;33997;53.278;9.708;2023-08-24T12:18:55;3.63;;;1.42;;
48207;SDS011;33997;53.278;9.708;2023-08-24T12:21:24;5.43;;;1.92;;
48207;SDS011;33997;53.278;9.708;2023-08-24T12:23:57;4.78;;;1.65;;
48207;SDS011;33997;53.278;9.708;2023-08-24T12:26:31;6.47;;;2.08;;
48207;SDS011;33997;53.278;9.708;2023-08-24T12:29:01;6.63;;;1.50;;
48207;SDS011;33997;53.278;9.708;2023-08-24T12:31:31;8.43;;;2.17;;
48207;SDS011;33997;53.278;9.708;2023-08-24T12:33:58;4.40;;;1.50;;
48207;SDS011;33997;53.278;9.708;2023-08-24T12:36:25;5.03;;;1.70;;
48207;SDS011;33997;53.278;9.708;2023-08-24T12:38:50;3.40;;;1.50;;
48207;SDS011;33997;53.278;9.708;2023-08-24T12:41:16;4.05;;;1.90;;
48207;SDS011;33997;53.278;9.708;2023-08-24T12:43:41;5.53;;;1.67;;
48207;SDS011;33997;53.278;9.708;2023-08-24T12:46:07;4.63;;;1.60;;
48207;SDS011;33997;53.278;9.708;2023-08-24T12:48:32;4.28;;;1.52;;
48207;SDS011;33997;53.278;9.708;2023-08-24T12:50:58;3.92;;;1.60;;
48207;SDS011;33997;53.278;9.708;2023-08-24T12:53:23;4.05;;;1.63;;
48207;SDS011;33997;53.278;9.708;2023-08-24T12:55:48;3.13;;;1.40;;
48207;SDS011;33997;53.278;9.708;2023-08-24T12:58:14;4.78;;;1.55;;
48207;SDS011;33997;53.278;9.708;2023-08-24T13:00:39;3.10;;;1.30;;
48207;SDS011;33997;53.278;9.708;2023-08-24T13:03:05;4.13;;;1.67;;
48207;SDS011;33997;53.278;9.708;2023-08-24T13:05:30;3.33;;;1.38;;
48207;SDS011;33997;53.278;9.708;2023-08-24T13:07:56;4.93;;;1.50;;
48207;SDS011;33997;53.278;9.708;2023-08-24T13:10:21;3.17;;;1.40;;
48207;SDS011;33997;53.278;9.708;2023-08-24T13:12:47;4.65;;;1.67;;
48207;SDS011;33997;53.278;9.708;2023-08-24T13:15:12;5.65;;;1.60;;
48207;SDS011;33997;53.278;9.708;2023-08-24T13:17:38;4.18;;;1.80;;
48207;SDS011;33997;53.278;9.708;2023-08-24T13:20:04;2.60;;;1.40;;
48207;SDS011;33997;53.278;9.708;2023-08-24T13:22:31;3.08;;;1.50;;
48207;SDS011;33997;53.278;9.708;2023-08-24T13:24:56;2.75;;;1.10;;
48207;SDS011;33997;53.278;9.708;2023-08-24T13:27:22;4.15;;;1.63;;
48207;SDS011;33997;53.278;9.708;2023-08-24T13:29:47;3.38;;;1.60;;
48207;SDS011;33997;53.278;9.708;2023-08-24T13:32:13;3.15;;;1.48;;
48207;SDS011;33997;53.278;9.708;2023-08-24T13:34:39;3.72;;;1.40;;
48207;SDS011;33997;53.278;9.708;2023-08-24T13:37:04;4.28;;;1.70;;
48207;SDS011;33997;53.278;9.708;2023-08-24T13:39:29;6.55;;;1.50;;
48207;SDS011;33997;53.278;9.708;2023-08-24T13:41:56;4.30;;;1.80;;
48207;SDS011;33997;53.278;9.708;2023-08-24T13:44:21;4.78;;;1.50;;
48207;SDS011;33997;53.278;9.708;2023-08-24T13:46:47;5.07;;;1.67;;
48207;SDS011;33997;53.278;9.708;2023-08-24T13:49:13;3.05;;;1.55;;
48207;SDS011;33997;53.278;9.708;2023-08-24T13:51:38;4.93;;;1.50;;
48207;SDS011;33997;53.278;9.708;2023-08-24T13:54:13;4.60;;;1.45;;
48207;SDS011;33997;53.278;9.708;2023-08-24T13:56:40;3.75;;;1.50;;
48207;SDS011;33997;53.278;9.708;2023-08-24T13:59:06;2.15;;;1.20;;
48207;SDS011;33997;53.278;9.708;2023-08-24T14:01:31;4.90;;;1.50;;
48207;SDS011;33997;53.278;9.708;2023-08-24T14:03:57;6.22;;;1.60;;
48207;SDS011;33997;53.278;9.708;2023-08-24T14:06:22;2.80;;;1.10;;
48207;SDS011;33997;53.278;9.708;2023-08-24T14:08:48;2.17;;;1.33;;
48207;SDS011;33997;53.278;9.708;2023-08-24T14:11:13;3.80;;;1.30;;
48207;SDS011;33997;53.278;9.708;2023-08-24T14:13:40;2.70;;;1.10;;
48207;SDS011;33997;53.278;9.708;2023-08-24T14:16:06;4.53;;;1.30;;
48207;SDS011;33997;53.278;9.708;2023-08-24T14:18:32;2.85;;;1.23;;
48207;SDS011;33997;53.278;9.708;2023-08-24T14:20:57;3.40;;;1.40;;
48207;SDS011;33997;53.278;9.708;2023-08-24T14:23:23;4.32;;;1.23;;
48207;SDS011;33997;53.278;9.708;2023-08-24T14:25:48;3.40;;;1.30;;
48207;SDS011;33997;53.278;9.708;2023-08-24T14:28:14;2.83;;;1.30;;
48207;SDS011;33997;53.278;9.708;2023-08-24T14:30:43;2.45;;;1.40;;
48207;SDS011;33997;53.278;9.708;2023-08-24T14:33:09;5.45;;;1.40;;
48207;SDS011;33997;53.278;9.708;2023-08-24T14:35:34;3.28;;;1.60;;
48207;SDS011;33997;53.278;9.708;2023-08-24T14:38:00;4.07;;;1.50;;
48207;SDS011;33997;53.278;9.708;2023-08-24T14:40:25;3.60;;;1.45;;
48207;SDS011;33997;53.278;9.708;2023-08-24T14:42:51;3.17;;;1.42;;
48207;SDS011;33997;53.278;9.708;2023-08-24T14:45:16;2.83;;;1.40;;
48207;SDS011;33997;53.278;9.708;2023-08-24T14:47:42;3.83;;;1.58;;